Time;durP1;ratioP1;P1;durP2;ratioP2;P2;SDS_P1;SDS_P2;PMS_P1;PMS_P2;Temp;Humidity;BMP_temperature;BMP_pressure;BME280_temperature;BME280_humidity;BME280_pressure;Samples;Min_cycle;Max_cycle;Signal;HPM_P1;HPM_P2
2022/04/21 00:01:37;;;;;;;9.23;5.87;;;;;;;;;;5020385;28;20418;-85
2022/04/21 00:04:03;;;;;;;10.37;5.63;;;;;;;;;;5020349;28;20509;-85
2022/04/21 00:06:29;;;;;;;8.67;6.30;;;;;;;;;;5020063;28;20415;-85
2022/04/21 00:08:55;;;;;;;10.03;6.43;;;;;;;;;;5034901;28;20420;-85
2022/04/21 00:11:21;;;;;;;9.40;6.87;;;;;;;;;;5020180;28;21049;-84
2022/04/21 00:13:47;;;;;;;6.43;5.30;;;;;;;;;;5019141;28;20530;-84
2022/04/21 00:16:14;;;;;;;10.83;7.13;;;;;;;;;;5019434;28;20394;-85
2022/04/21 00:18:40;;;;;;;15.57;8.30;;;;;;;;;;5019949;28;20399;-84
2022/04/21 00:21:06;;;;;;;12.67;8.23;;;;;;;;;;5034539;28;20419;-84
2022/04/21 00:23:33;;;;;;;12.30;7.80;;;;;;;;;;5034788;28;20427;-85
2022/04/21 00:26:00;;;;;;;14.20;8.27;;;;;;;;;;5019785;28;20927;-85
2022/04/21 00:28:28;;;;;;;11.60;7.00;;;;;;;;;;5020831;28;20403;-84
2022/04/21 00:30:54;;;;;;;12.77;8.90;;;;;;;;;;5020133;28;20482;-85
2022/04/21 00:33:21;;;;;;;12.30;7.10;;;;;;;;;;5019337;28;20411;-84
2022/04/21 00:35:47;;;;;;;8.67;7.70;;;;;;;;;;5019141;28;20459;-84
2022/04/21 00:38:13;;;;;;;10.37;7.03;;;;;;;;;;5019403;28;20407;-84
2022/04/21 00:40:39;;;;;;;8.93;7.17;;;;;;;;;;5019790;28;20868;-84
2022/04/21 00:43:05;;;;;;;8.27;6.43;;;;;;;;;;5019772;28;20416;-84
2022/04/21 00:45:33;;;;;;;9.07;6.40;;;;;;;;;;5034483;28;20431;-85
2022/04/21 00:48:00;;;;;;;8.90;6.97;;;;;;;;;;5019288;28;20403;-85
2022/04/21 00:50:27;;;;;;;11.10;7.50;;;;;;;;;;5026437;28;20447;-83
2022/04/21 00:52:54;;;;;;;13.30;7.80;;;;;;;;;;5033137;28;20467;-84
2022/04/21 00:55:20;;;;;;;12.50;8.77;;;;;;;;;;5033648;28;20423;-83
2022/04/21 00:57:47;;;;;;;13.90;7.10;;;;;;;;;;5033044;28;20427;-83
2022/04/21 01:00:13;;;;;;;11.23;6.93;;;;;;;;;;5028679;28;20914;-85
2022/04/21 01:02:46;;;;;;;15.40;7.80;;;;;;;;;;5019997;28;20411;-85
2022/04/21 01:05:13;;;;;;;10.17;7.87;;;;;;;;;;5020870;28;20435;-85
2022/04/21 01:07:39;;;;;;;11.43;8.23;;;;;;;;;;5020462;28;20435;-83
2022/04/21 01:10:06;;;;;;;13.17;7.97;;;;;;;;;;5027522;28;20451;-84
2022/04/21 01:12:32;;;;;;;16.40;7.30;;;;;;;;;;5023855;28;20904;-85
2022/04/21 01:14:58;;;;;;;9.40;7.70;;;;;;;;;;5067290;22;20857;-87
2022/04/21 01:17:34;;;;;;;11.30;7.70;;;;;;;;;;5051426;28;20448;-87
2022/04/21 01:20:01;;;;;;;15.70;7.83;;;;;;;;;;5063351;28;20405;-87
2022/04/21 01:22:27;;;;;;;15.87;7.40;;;;;;;;;;5066085;28;20453;-86
2022/04/21 01:24:53;;;;;;;10.30;7.47;;;;;;;;;;5065115;28;20417;-87
2022/04/21 01:27:22;;;;;;;12.10;7.67;;;;;;;;;;5065898;28;20390;-85
2022/04/21 01:29:49;;;;;;;12.90;7.73;;;;;;;;;;5047346;28;20449;-85
2022/04/21 01:32:15;;;;;;;12.60;8.17;;;;;;;;;;5063898;28;20483;-85
2022/04/21 01:34:41;;;;;;;12.93;8.13;;;;;;;;;;5064184;28;20821;-85
2022/04/21 01:42:37;;;;;;;9.87;7.57;;;;;;;;;;5063628;28;20439;-86
2022/04/21 01:45:03;;;;;;;10.93;7.00;;;;;;;;;;5063365;28;20436;-85
2022/04/21 01:47:29;;;;;;;13.87;7.20;;;;;;;;;;5063348;28;20402;-85
2022/04/21 01:49:55;;;;;;;10.40;7.10;;;;;;;;;;5064024;28;20441;-84
2022/04/21 01:52:21;;;;;;;12.93;7.63;;;;;;;;;;5063984;28;20932;-85
2022/04/21 01:54:50;;;;;;;10.70;6.93;;;;;;;;;;5062220;28;20508;-85
2022/04/21 01:57:18;;;;;;;12.90;8.07;;;;;;;;;;5062597;28;20417;-86
2022/04/21 01:59:44;;;;;;;30.20;7.53;;;;;;;;;;5062504;28;20402;-86
2022/04/21 02:02:10;;;;;;;17.03;9.03;;;;;;;;;;5062102;28;20402;-85
2022/04/21 02:04:36;;;;;;;11.67;7.40;;;;;;;;;;5061775;28;20488;-86
2022/04/21 02:07:03;;;;;;;11.57;7.70;;;;;;;;;;5062402;28;20406;-85
2022/04/21 02:09:30;;;;;;;14.70;7.63;;;;;;;;;;5062930;28;20409;-85
2022/04/21 02:11:56;;;;;;;13.07;7.27;;;;;;;;;;5061910;28;20889;-85
2022/04/21 02:14:22;;;;;;;10.30;7.47;;;;;;;;;;5062186;28;20465;-85
2022/04/21 02:16:48;;;;;;;10.93;7.73;;;;;;;;;;5061813;28;20458;-86
2022/04/21 02:19:14;;;;;;;13.20;7.53;;;;;;;;;;5044040;28;20405;-86
2022/04/21 02:21:40;;;;;;;11.10;7.13;;;;;;;;;;5044625;28;20471;-85
2022/04/21 02:24:06;;;;;;;12.53;7.37;;;;;;;;;;5061997;28;20412;-84
2022/04/21 02:26:32;;;;;;;13.47;8.80;;;;;;;;;;5061991;28;20421;-85
2022/04/21 02:28:58;;;;;;;9.83;7.63;;;;;;;;;;5062378;28;20410;-85
2022/04/21 02:31:24;;;;;;;10.53;7.30;;;;;;;;;;5069781;28;20443;-85
2022/04/21 02:33:50;;;;;;;14.93;7.37;;;;;;;;;;5073642;28;20398;-85
2022/04/21 02:36:16;;;;;;;9.03;7.00;;;;;;;;;;5075783;28;20476;-85
2022/04/21 02:38:42;;;;;;;11.17;7.37;;;;;;;;;;5053572;28;20492;-85
2022/04/21 02:41:08;;;;;;;12.20;6.97;;;;;;;;;;5067135;28;20421;-86
2022/04/21 02:43:34;;;;;;;12.10;6.57;;;;;;;;;;5066974;28;20428;-86
2022/04/21 02:46:00;;;;;;;12.80;6.60;;;;;;;;;;5065216;28;20443;-86
2022/04/21 02:48:26;;;;;;;13.17;7.90;;;;;;;;;;5064879;28;20441;-86
2022/04/21 02:50:52;;;;;;;11.23;6.57;;;;;;;;;;5064315;28;20437;-85
2022/04/21 02:57:19;;;;;;;11.80;7.00;;;;;;;;;;5036448;28;20427;-86
2022/04/21 02:58:50;;;;;;;13.00;6.80;;;;;;;;;;5044033;28;20985;-86
2022/04/21 03:01:16;;;;;;;12.60;6.87;;;;;;;;;;5043321;28;20399;-85
2022/04/21 03:03:42;;;;;;;10.17;7.30;;;;;;;;;;5024712;28;20467;-86
2022/04/21 03:06:09;;;;;;;11.60;7.50;;;;;;;;;;5024976;28;20426;-86
2022/04/21 03:08:35;;;;;;;8.80;6.70;;;;;;;;;;5025087;28;20460;-84
2022/04/21 03:11:01;;;;;;;9.87;7.40;;;;;;;;;;5041818;28;20964;-84
2022/04/21 03:13:27;;;;;;;10.67;7.57;;;;;;;;;;5024627;28;20419;-85
2022/04/21 03:15:53;;;;;;;8.40;6.50;;;;;;;;;;5041224;28;20568;-84
2022/04/21 03:18:19;;;;;;;9.70;6.50;;;;;;;;;;5038113;28;20411;-84
2022/04/21 03:26:17;;;;;;;10.77;7.83;;;;;;;;;;5037312;28;20445;-85
2022/04/21 03:28:43;;;;;;;9.20;7.90;;;;;;;;;;5019846;28;20418;-84
2022/04/21 03:31:09;;;;;;;9.50;7.13;;;;;;;;;;5037693;28;20472;-84
2022/04/21 03:33:36;;;;;;;10.60;7.40;;;;;;;;;;5037048;28;20891;-85
2022/04/21 03:36:03;;;;;;;9.03;6.83;;;;;;;;;;5036644;28;20452;-84
2022/04/21 03:38:29;;;;;;;11.33;7.10;;;;;;;;;;5036664;28;20822;-85
2022/04/21 03:40:56;;;;;;;12.53;7.13;;;;;;;;;;5017132;28;20911;-85
2022/04/21 03:43:22;;;;;;;9.33;7.60;;;;;;;;;;5019051;28;20435;-85
2022/04/21 03:45:49;;;;;;;12.00;8.50;;;;;;;;;;5019812;28;20481;-85
2022/04/21 03:48:16;;;;;;;10.37;7.30;;;;;;;;;;5001878;28;20415;-85
2022/04/21 03:50:43;;;;;;;13.53;7.13;;;;;;;;;;5019387;28;20447;-85
2022/04/21 03:53:09;;;;;;;14.00;9.23;;;;;;;;;;5019989;28;20418;-85
2022/04/21 03:55:35;;;;;;;10.80;7.17;;;;;;;;;;5019593;28;20427;-85
2022/04/21 03:58:01;;;;;;;11.60;7.67;;;;;;;;;;5019965;28;20510;-85
2022/04/21 04:00:27;;;;;;;10.73;7.67;;;;;;;;;;5019847;28;20411;-85
2022/04/21 04:02:54;;;;;;;9.40;7.13;;;;;;;;;;5002519;28;20430;-85
2022/04/21 04:05:20;;;;;;;14.63;9.40;;;;;;;;;;5025189;28;20442;-86
2022/04/21 04:13:16;;;;;;;10.10;7.00;;;;;;;;;;5025789;28;20379;-86
2022/04/21 04:15:47;;;;;;;12.20;8.23;;;;;;;;;;5024925;28;20514;-86
2022/04/21 04:18:13;;;;;;;15.90;8.30;;;;;;;;;;5006469;28;20395;-87
2022/04/21 04:20:39;;;;;;;12.63;8.60;;;;;;;;;;5005678;28;20475;-85
2022/04/21 04:23:05;;;;;;;16.80;8.13;;;;;;;;;;5023739;28;20407;-84
2022/04/21 04:25:31;;;;;;;9.77;7.10;;;;;;;;;;5022973;28;20423;-86
2022/04/21 04:27:57;;;;;;;15.13;8.60;;;;;;;;;;5023151;28;20449;-86
2022/04/21 04:30:24;;;;;;;12.37;8.07;;;;;;;;;;5022763;28;20934;-85
2022/04/21 04:32:50;;;;;;;18.10;8.60;;;;;;;;;;5022309;28;20502;-85
2022/04/21 04:35:16;;;;;;;12.10;7.87;;;;;;;;;;5021942;28;20434;-85
2022/04/21 04:37:42;;;;;;;12.93;8.07;;;;;;;;;;5021274;28;20861;-85
2022/04/21 04:40:08;;;;;;;11.70;7.77;;;;;;;;;;5020966;28;20423;-85
2022/04/21 04:42:34;;;;;;;18.77;8.97;;;;;;;;;;5021646;28;20431;-85
2022/04/21 04:47:45;;;;;;;14.73;8.40;;;;;;;;;;5023141;28;20478;-85
2022/04/21 04:50:11;;;;;;;11.67;7.67;;;;;;;;;;5022007;28;20530;-86
2022/04/21 04:52:37;;;;;;;10.87;7.20;;;;;;;;;;5004269;28;20906;-84
2022/04/21 04:55:03;;;;;;;11.93;8.13;;;;;;;;;;5005084;28;20928;-85
2022/04/21 04:57:29;;;;;;;17.17;8.17;;;;;;;;;;5006059;28;20416;-85
2022/04/21 04:59:55;;;;;;;10.90;8.30;;;;;;;;;;5008103;28;20414;-86
2022/04/21 05:02:22;;;;;;;13.07;7.37;;;;;;;;;;5024250;28;20858;-85
2022/04/21 05:04:48;;;;;;;10.90;7.13;;;;;;;;;;5021313;28;20422;-85
2022/04/21 05:07:14;;;;;;;11.10;8.17;;;;;;;;;;5023549;28;20403;-85
2022/04/21 05:09:40;;;;;;;10.87;8.33;;;;;;;;;;5022202;28;20404;-84
2022/04/21 05:12:07;;;;;;;10.00;7.77;;;;;;;;;;5022367;28;20431;-84
2022/04/21 05:14:34;;;;;;;14.63;7.60;;;;;;;;;;5023147;28;20435;-86
2022/04/21 05:17:00;;;;;;;16.07;7.10;;;;;;;;;;5023447;28;20404;-85
2022/04/21 05:19:26;;;;;;;11.00;8.57;;;;;;;;;;5023164;28;20407;-85
2022/04/21 05:21:53;;;;;;;10.77;8.00;;;;;;;;;;5022110;28;20591;-84
2022/04/21 05:24:19;;;;;;;15.10;9.70;;;;;;;;;;5004909;28;20522;-85
2022/04/21 05:26:46;;;;;;;12.70;7.93;;;;;;;;;;5022652;28;20949;-84
2022/04/21 05:31:58;;;;;;;9.13;7.43;;;;;;;;;;5023258;28;20401;-86
2022/04/21 05:34:25;;;;;;;9.57;7.17;;;;;;;;;;5023360;28;20442;-86
2022/04/21 05:36:52;;;;;;;14.40;8.60;;;;;;;;;;5023229;28;20405;-86
2022/04/21 05:39:18;;;;;;;12.90;8.50;;;;;;;;;;5022740;28;20473;-85
2022/04/21 05:41:44;;;;;;;15.50;9.53;;;;;;;;;;5005297;28;20439;-85
2022/04/21 05:44:11;;;;;;;11.77;8.67;;;;;;;;;;5023264;28;20410;-86
2022/04/21 05:46:37;;;;;;;12.33;8.57;;;;;;;;;;5023443;28;20407;-86
2022/04/21 05:49:03;;;;;;;16.80;8.93;;;;;;;;;;5009433;28;20435;-86
2022/04/21 05:51:30;;;;;;;10.33;8.57;;;;;;;;;;5028233;28;20551;-86
2022/04/21 05:53:58;;;;;;;11.90;8.13;;;;;;;;;;5026954;28;20426;-86
2022/04/21 05:56:24;;;;;;;9.50;8.27;;;;;;;;;;5027489;28;20415;-86
2022/04/21 05:58:50;;;;;;;15.63;8.10;;;;;;;;;;5030287;28;20439;-86
2022/04/21 06:01:16;;;;;;;11.83;8.73;;;;;;;;;;5031703;28;20450;-86
2022/04/21 06:03:42;;;;;;;14.33;9.57;;;;;;;;;;5031875;28;20475;-86
2022/04/21 06:06:09;;;;;;;14.93;9.30;;;;;;;;;;5031574;28;20431;-86
2022/04/21 06:08:35;;;;;;;11.53;8.73;;;;;;;;;;5031514;28;20403;-85
2022/04/21 06:11:01;;;;;;;11.67;8.50;;;;;;;;;;5031826;28;20442;-87
2022/04/21 06:13:27;;;;;;;14.13;9.70;;;;;;;;;;5031523;28;20412;-85
2022/04/21 06:15:56;;;;;;;13.43;9.60;;;;;;;;;;5030046;28;20447;-85
2022/04/21 06:18:23;;;;;;;10.07;8.80;;;;;;;;;;5030564;28;20416;-85
2022/04/21 06:20:50;;;;;;;11.33;8.03;;;;;;;;;;5014087;28;20411;-85
2022/04/21 06:23:16;;;;;;;12.57;9.63;;;;;;;;;;5013715;28;20407;-86
2022/04/21 06:25:42;;;;;;;12.43;8.63;;;;;;;;;;5034491;28;20486;-86
2022/04/21 06:28:09;;;;;;;13.87;9.00;;;;;;;;;;5016140;28;20418;-85
2022/04/21 06:30:35;;;;;;;11.63;9.50;;;;;;;;;;5016626;28;20458;-86
2022/04/21 06:33:02;;;;;;;10.70;9.10;;;;;;;;;;5013868;28;20427;-85
2022/04/21 06:35:28;;;;;;;14.63;8.30;;;;;;;;;;5031576;28;20426;-86
2022/04/21 06:37:55;;;;;;;12.90;9.70;;;;;;;;;;5028990;28;20431;-85
2022/04/21 06:40:21;;;;;;;15.13;10.70;;;;;;;;;;5002867;28;20412;-85
2022/04/21 06:42:47;;;;;;;11.03;9.93;;;;;;;;;;5021583;28;20408;-85
2022/04/21 06:48:04;;;;;;;13.10;9.90;;;;;;;;;;5032601;28;20437;-85
2022/04/21 06:50:37;;;;;;;15.03;8.70;;;;;;;;;;5008862;28;20465;-85
2022/04/21 06:53:04;;;;;;;13.97;9.63;;;;;;;;;;5032679;28;20408;-86
2022/04/21 06:55:30;;;;;;;14.33;9.70;;;;;;;;;;5031890;28;20473;-85
2022/04/21 06:57:56;;;;;;;15.90;10.07;;;;;;;;;;5014384;28;20438;-85
2022/04/21 07:00:23;;;;;;;11.77;9.30;;;;;;;;;;5029172;28;20408;-85
2022/04/21 07:02:51;;;;;;;14.20;10.07;;;;;;;;;;5033349;28;20454;-84
2022/04/21 07:05:17;;;;;;;12.63;8.77;;;;;;;;;;5033033;28;20462;-84
2022/04/21 07:07:44;;;;;;;14.70;9.87;;;;;;;;;;5033823;28;20407;-84
2022/04/21 07:10:11;;;;;;;14.17;8.83;;;;;;;;;;5031590;28;20447;-85
2022/04/21 07:12:37;;;;;;;15.60;9.93;;;;;;;;;;5017822;28;20420;-86
2022/04/21 07:15:07;;;;;;;16.57;9.63;;;;;;;;;;5048600;22;20557;-82
2022/04/21 07:17:34;;;;;;;16.03;9.37;;;;;;;;;;5059099;28;20770;-83
2022/04/21 07:20:00;;;;;;;12.23;9.47;;;;;;;;;;5062118;28;20406;-85
2022/04/21 07:22:26;;;;;;;22.13;9.83;;;;;;;;;;5044051;28;20409;-84
2022/04/21 07:24:53;;;;;;;15.10;9.30;;;;;;;;;;5061422;28;20426;-85
2022/04/21 07:27:19;;;;;;;12.87;10.10;;;;;;;;;;5061169;28;20402;-82
2022/04/21 07:29:45;;;;;;;22.10;9.80;;;;;;;;;;5061899;28;20501;-84
2022/04/21 07:32:11;;;;;;;16.67;9.53;;;;;;;;;;5061753;28;20456;-84
2022/04/21 07:34:37;;;;;;;13.90;11.27;;;;;;;;;;5061588;28;20428;-84
2022/04/21 07:37:04;;;;;;;19.83;11.00;;;;;;;;;;5043387;28;20438;-84
2022/04/21 07:39:32;;;;;;;17.60;10.13;;;;;;;;;;5061032;28;20405;-85
2022/04/21 07:41:59;;;;;;;15.83;10.00;;;;;;;;;;5043303;28;20418;-85
2022/04/21 07:44:26;;;;;;;22.90;9.80;;;;;;;;;;5061187;28;20416;-84
2022/04/21 07:46:52;;;;;;;12.47;8.80;;;;;;;;;;5061785;28;20433;-85
2022/04/21 07:54:48;;;;;;;12.77;9.23;;;;;;;;;;5072942;28;20421;-84
2022/04/21 07:57:15;;;;;;;13.37;9.43;;;;;;;;;;5070322;28;20398;-83
2022/04/21 07:59:42;;;;;;;15.10;9.60;;;;;;;;;;5070316;28;20394;-84
2022/04/21 08:02:08;;;;;;;10.30;8.70;;;;;;;;;;5067127;28;20894;-85
2022/04/21 08:04:37;;;;;;;13.40;8.80;;;;;;;;;;5045705;28;20542;-84
2022/04/21 08:07:03;;;;;;;12.60;8.33;;;;;;;;;;5063696;28;20432;-83
2022/04/21 08:09:29;;;;;;;12.10;8.37;;;;;;;;;;5063530;28;20409;-85
2022/04/21 08:11:56;;;;;;;13.03;9.30;;;;;;;;;;5069487;28;20449;-84
2022/04/21 08:14:23;;;;;;;19.40;8.40;;;;;;;;;;5050316;28;20428;-84
2022/04/21 08:16:49;;;;;;;12.03;10.03;;;;;;;;;;5059992;28;20944;-83
2022/04/21 08:19:15;;;;;;;14.00;8.97;;;;;;;;;;5059576;28;20402;-83
2022/04/21 08:21:42;;;;;;;15.63;9.70;;;;;;;;;;5059493;28;20496;-83
2022/04/21 08:32:41;;;;;;;15.93;9.37;;;;;;;;;;5060660;28;20404;-84
2022/04/21 08:35:09;;;;;;;15.43;9.93;;;;;;;;;;5059917;28;20417;-85
2022/04/21 08:37:35;;;;;;;10.97;8.10;;;;;;;;;;5060400;28;20408;-84
2022/04/21 08:40:02;;;;;;;16.40;10.13;;;;;;;;;;5061076;28;20398;-84
2022/04/21 08:42:30;;;;;;;12.70;9.10;;;;;;;;;;5061017;28;20777;-84
2022/04/21 08:44:58;;;;;;;14.57;9.03;;;;;;;;;;5042607;28;20456;-84
2022/04/21 08:47:28;;;;;;;15.40;8.40;;;;;;;;;;5060377;28;20421;-85
2022/04/21 08:49:59;;;;;;;10.33;7.00;;;;;;;;;;5059852;28;20486;-84
2022/04/21 08:52:25;;;;;;;15.63;8.93;;;;;;;;;;5042230;28;20410;-84
2022/04/21 08:54:52;;;;;;;10.33;8.40;;;;;;;;;;5060134;28;20476;-84
2022/04/21 08:57:18;;;;;;;12.13;8.27;;;;;;;;;;5062874;28;20397;-84
2022/04/21 08:59:44;;;;;;;13.60;8.63;;;;;;;;;;5059976;28;20401;-84
2022/04/21 09:02:10;;;;;;;12.20;8.43;;;;;;;;;;5060161;28;20405;-84
2022/04/21 09:04:36;;;;;;;12.27;8.40;;;;;;;;;;5059910;28;20397;-83
2022/04/21 09:07:14;;;;;;;14.50;8.57;;;;;;;;;;5060549;28;20406;-84
2022/04/21 09:09:40;;;;;;;10.20;8.17;;;;;;;;;;5067462;28;20425;-82
2022/04/21 09:12:06;;;;;;;9.87;8.23;;;;;;;;;;5074947;28;20426;-82
2022/04/21 09:14:32;;;;;;;11.13;7.93;;;;;;;;;;5060583;28;20405;-84
2022/04/21 09:17:05;;;;;;;17.20;7.80;;;;;;;;;;5060337;28;20401;-83
2022/04/21 09:19:31;;;;;;;11.97;8.37;;;;;;;;;;5041370;28;20405;-84
2022/04/21 09:21:57;;;;;;;15.40;8.63;;;;;;;;;;5061645;28;20388;-84
2022/04/21 09:24:23;;;;;;;14.03;9.13;;;;;;;;;;5060333;28;20843;-84
2022/04/21 09:26:50;;;;;;;12.90;8.17;;;;;;;;;;5042985;28;20409;-83
2022/04/21 09:29:30;;;;;;;15.03;7.90;;;;;;;;;;5041902;28;20402;-83
2022/04/21 09:32:00;;;;;;;12.77;7.93;;;;;;;;;;5059211;28;20495;-83
2022/04/21 09:34:26;;;;;;;11.83;8.30;;;;;;;;;;5064005;28;20401;-83
2022/04/21 09:36:59;;;;;;;11.70;7.57;;;;;;;;;;5064275;28;20394;-83
2022/04/21 09:39:27;;;;;;;12.87;8.60;;;;;;;;;;5046944;28;20425;-84
2022/04/21 09:41:54;;;;;;;11.03;8.40;;;;;;;;;;5064154;28;20402;-83
2022/04/21 09:47:08;;;;;;;11.73;9.10;;;;;;;;;;5063369;28;20397;-82
2022/04/21 09:49:35;;;;;;;12.13;8.23;;;;;;;;;;5060703;28;20413;-83
2022/04/21 09:52:02;;;;;;;11.90;9.13;;;;;;;;;;5045227;28;20433;-83
2022/04/21 09:54:31;;;;;;;15.30;9.23;;;;;;;;;;5063692;28;20436;-84
2022/04/21 09:56:58;;;;;;;12.33;8.60;;;;;;;;;;5045397;28;20409;-84
2022/04/21 09:59:25;;;;;;;13.60;8.70;;;;;;;;;;5046136;28;20959;-83
2022/04/21 10:01:51;;;;;;;13.10;9.00;;;;;;;;;;5044339;28;20409;-83
2022/04/21 10:04:20;;;;;;;10.13;7.30;;;;;;;;;;5062203;28;20405;-83
2022/04/21 10:06:47;;;;;;;16.33;8.63;;;;;;;;;;5063059;28;20397;-84
2022/04/21 10:09:14;;;;;;;10.77;8.17;;;;;;;;;;5063916;28;20390;-83
2022/04/21 10:11:44;;;;;;;13.87;8.37;;;;;;;;;;5044744;28;20819;-83
2022/04/21 10:14:12;;;;;;;10.50;7.57;;;;;;;;;;5046245;28;20500;-84
2022/04/21 10:16:38;;;;;;;9.37;6.80;;;;;;;;;;5063238;28;20438;-84
2022/04/21 10:19:05;;;;;;;8.03;7.20;;;;;;;;;;5063457;28;20800;-84
2022/04/21 10:21:33;;;;;;;10.00;7.87;;;;;;;;;;5063446;28;20462;-84
2022/04/21 10:23:59;;;;;;;11.40;7.73;;;;;;;;;;5063777;28;20499;-84
2022/04/21 10:26:36;;;;;;;9.47;6.73;;;;;;;;;;5063566;28;20441;-85
2022/04/21 10:29:11;;;;;;;10.20;7.27;;;;;;;;;;5063766;28;20412;-84
2022/04/21 10:31:45;;;;;;;8.43;6.67;;;;;;;;;;5063487;28;20455;-84
2022/04/21 10:34:11;;;;;;;8.47;6.97;;;;;;;;;;5063167;28;20393;-84
2022/04/21 10:36:41;;;;;;;13.00;8.00;;;;;;;;;;5045832;28;20487;-84
2022/04/21 10:39:30;;;;;;;10.93;8.60;;;;;;;;;;5063689;28;20406;-84
2022/04/21 10:42:15;;;;;;;10.67;8.73;;;;;;;;;;5063147;28;20410;-84
2022/04/21 10:44:45;;;;;;;11.93;8.13;;;;;;;;;;5062953;28;20928;-83
2022/04/21 10:47:30;;;;;;;9.77;8.33;;;;;;;;;;5063709;28;20415;-83
2022/04/21 10:49:56;;;;;;;11.80;9.77;;;;;;;;;;5063021;28;20472;-83
2022/04/21 10:57:55;;;;;;;11.70;8.77;;;;;;;;;;5063118;28;20420;-83
2022/04/21 11:00:27;;;;;;;14.67;8.87;;;;;;;;;;5062834;28;20413;-84
2022/04/21 11:03:04;;;;;;;11.00;8.93;;;;;;;;;;5059794;28;20414;-83
2022/04/21 11:05:33;;;;;;;9.80;8.50;;;;;;;;;;5053626;28;21231;-82
2022/04/21 11:08:00;;;;;;;8.87;7.43;;;;;;;;;;5047898;28;20405;-83
2022/04/21 11:10:38;;;;;;;12.73;9.13;;;;;;;;;;5064881;28;20449;-83
2022/04/21 11:13:08;;;;;;;16.50;9.50;;;;;;;;;;5064450;28;20406;-85
2022/04/21 11:15:39;;;;;;;12.13;8.03;;;;;;;;;;5064023;28;20524;-84
2022/04/21 11:18:11;;;;;;;14.27;9.10;;;;;;;;;;5063406;28;20822;-86
2022/04/21 11:20:41;;;;;;;12.40;8.33;;;;;;;;;;5062747;28;20406;-86
2022/04/21 11:23:08;;;;;;;10.00;7.43;;;;;;;;;;5062067;28;20465;-85
2022/04/21 11:25:35;;;;;;;13.20;9.03;;;;;;;;;;5062396;28;20509;-85
2022/04/21 11:28:02;;;;;;;10.50;8.23;;;;;;;;;;5044726;28;20425;-85
2022/04/21 11:30:29;;;;;;;11.10;7.30;;;;;;;;;;5056033;28;20445;-85
2022/04/21 11:32:56;;;;;;;9.77;7.00;;;;;;;;;;5058022;28;20413;-83
2022/04/21 11:35:22;;;;;;;15.47;8.30;;;;;;;;;;5073108;28;20449;-85
2022/04/21 11:37:50;;;;;;;11.30;8.07;;;;;;;;;;5063556;28;20398;-84
2022/04/21 11:40:19;;;;;;;13.93;8.17;;;;;;;;;;5045180;28;20409;-83
2022/04/21 11:42:45;;;;;;;10.80;7.27;;;;;;;;;;5062845;28;20805;-85
2022/04/21 11:45:11;;;;;;;10.90;7.33;;;;;;;;;;5061808;28;20446;-85
2022/04/21 11:47:39;;;;;;;11.43;7.80;;;;;;;;;;5061650;28;20394;-85
2022/04/21 11:50:05;;;;;;;11.50;8.07;;;;;;;;;;5060706;28;20928;-85
2022/04/21 11:52:31;;;;;;;10.73;7.90;;;;;;;;;;5060929;28;20441;-85
2022/04/21 11:55:04;;;;;;;10.77;8.73;;;;;;;;;;5060799;28;20428;-85
2022/04/21 11:57:43;;;;;;;10.53;7.90;;;;;;;;;;5060526;28;20402;-84
2022/04/21 12:00:10;;;;;;;12.10;7.50;;;;;;;;;;5043330;28;20412;-85
2022/04/21 12:08:12;;;;;;;9.17;7.67;;;;;;;;;;5061171;28;20389;-85
2022/04/21 12:10:38;;;;;;;7.97;6.80;;;;;;;;;;5043312;28;20849;-85
2022/04/21 12:13:05;;;;;;;11.13;7.60;;;;;;;;;;5061032;28;20402;-85
2022/04/21 12:15:32;;;;;;;12.90;7.87;;;;;;;;;;5042753;28;20445;-85
2022/04/21 12:18:01;;;;;;;10.13;7.07;;;;;;;;;;5062820;28;20410;-85
2022/04/21 12:20:27;;;;;;;11.70;7.47;;;;;;;;;;5062288;28;20843;-83
2022/04/21 12:22:54;;;;;;;14.03;7.90;;;;;;;;;;5061291;28;20405;-86
2022/04/21 12:25:28;;;;;;;10.47;8.00;;;;;;;;;;5060801;28;20428;-84
2022/04/21 12:27:54;;;;;;;10.07;7.80;;;;;;;;;;5061248;28;20754;-85
2022/04/21 12:30:20;;;;;;;9.23;7.30;;;;;;;;;;5066342;28;20528;-83
2022/04/21 12:32:47;;;;;;;8.80;6.97;;;;;;;;;;5061079;28;20398;-85
2022/04/21 12:35:14;;;;;;;11.90;7.60;;;;;;;;;;5060808;28;20421;-85
2022/04/21 12:37:47;;;;;;;7.80;6.87;;;;;;;;;;5061849;28;20440;-86
2022/04/21 12:40:14;;;;;;;8.97;7.80;;;;;;;;;;5061231;28;20389;-85
2022/04/21 12:42:40;;;;;;;8.53;7.53;;;;;;;;;;5060860;28;20944;-85
2022/04/21 12:45:08;;;;;;;7.87;7.07;;;;;;;;;;5061193;28;20944;-84
2022/04/21 12:47:47;;;;;;;8.27;7.47;;;;;;;;;;5062071;28;20408;-85
2022/04/21 12:50:23;;;;;;;8.70;7.80;;;;;;;;;;5070763;28;20437;-82
2022/04/21 12:52:50;;;;;;;11.57;7.80;;;;;;;;;;5070731;28;20405;-81
2022/04/21 12:55:19;;;;;;;11.50;7.27;;;;;;;;;;5064411;28;20444;-83
2022/04/21 12:58:05;;;;;;;11.17;7.80;;;;;;;;;;5062864;28;20470;-84
2022/04/21 13:00:32;;;;;;;9.03;7.53;;;;;;;;;;5044068;28;20481;-84
2022/04/21 13:02:58;;;;;;;8.73;7.83;;;;;;;;;;5062190;28;20414;-84
2022/04/21 13:05:24;;;;;;;13.47;9.37;;;;;;;;;;5063033;28;20440;-84
2022/04/21 13:07:50;;;;;;;9.40;8.50;;;;;;;;;;5066623;28;20435;-84
2022/04/21 13:10:21;;;;;;;12.17;8.50;;;;;;;;;;5050398;28;20445;-82
2022/04/21 13:12:47;;;;;;;11.90;8.17;;;;;;;;;;5067941;28;20481;-84
2022/04/21 13:15:14;;;;;;;8.30;7.27;;;;;;;;;;5094716;22;20484;-82
2022/04/21 13:17:40;;;;;;;8.60;7.40;;;;;;;;;;5085315;28;20487;-80
2022/04/21 13:20:06;;;;;;;13.70;8.70;;;;;;;;;;5095133;28;20435;-80
2022/04/21 13:22:32;;;;;;;9.37;8.20;;;;;;;;;;5086140;28;20471;-79
2022/04/21 13:24:58;;;;;;;8.80;7.50;;;;;;;;;;5083780;28;20430;-80
2022/04/21 13:27:26;;;;;;;9.70;7.30;;;;;;;;;;5095226;28;20397;-79
2022/04/21 13:29:53;;;;;;;13.57;8.20;;;;;;;;;;5079436;28;20507;-79
2022/04/21 13:35:05;;;;;;;8.63;7.73;;;;;;;;;;5098701;28;20376;-80
2022/04/21 13:37:32;;;;;;;8.60;6.60;;;;;;;;;;5081412;28;20392;-80
2022/04/21 13:39:58;;;;;;;14.93;7.60;;;;;;;;;;5098940;28;20381;-80
2022/04/21 13:42:24;;;;;;;9.90;7.23;;;;;;;;;;5099244;28;20426;-79
2022/04/21 13:44:51;;;;;;;8.00;7.20;;;;;;;;;;5097877;28;20381;-81
2022/04/21 13:47:18;;;;;;;9.17;7.47;;;;;;;;;;5095858;28;20393;-81
2022/04/21 13:49:46;;;;;;;12.20;8.07;;;;;;;;;;5093753;28;20397;-81
2022/04/21 13:52:15;;;;;;;6.93;6.23;;;;;;;;;;5093173;28;20404;-81
2022/04/21 13:54:41;;;;;;;8.03;7.10;;;;;;;;;;5094241;28;20429;-81
2022/04/21 13:57:07;;;;;;;11.77;8.30;;;;;;;;;;5093353;28;20765;-82
2022/04/21 13:59:33;;;;;;;10.50;7.77;;;;;;;;;;5094454;28;20432;-81
2022/04/21 14:01:59;;;;;;;12.23;6.93;;;;;;;;;;5093390;28;20404;-81
2022/04/21 14:04:25;;;;;;;8.90;7.60;;;;;;;;;;5093372;28;20455;-81
2022/04/21 14:06:52;;;;;;;8.10;7.13;;;;;;;;;;5093383;28;20428;-81
2022/04/21 14:09:18;;;;;;;9.33;7.97;;;;;;;;;;5092434;28;20397;-81
2022/04/21 14:11:51;;;;;;;16.87;7.30;;;;;;;;;;5095405;28;20431;-79
2022/04/21 14:14:17;;;;;;;9.63;7.17;;;;;;;;;;5075421;28;20964;-80
2022/04/21 14:16:43;;;;;;;7.80;7.00;;;;;;;;;;5092415;28;20451;-81
2022/04/21 14:19:09;;;;;;;8.70;7.80;;;;;;;;;;5092441;28;20404;-81
2022/04/21 14:21:36;;;;;;;8.37;7.40;;;;;;;;;;5092878;28;20400;-82
2022/04/21 14:24:02;;;;;;;10.60;7.53;;;;;;;;;;5093284;28;20939;-81
2022/04/21 14:26:28;;;;;;;9.50;6.87;;;;;;;;;;5092444;28;20428;-81
2022/04/21 14:28:55;;;;;;;7.60;6.83;;;;;;;;;;5093360;28;20397;-82
2022/04/21 14:31:21;;;;;;;8.23;7.17;;;;;;;;;;5092253;28;20471;-81
2022/04/21 14:33:47;;;;;;;9.80;7.27;;;;;;;;;;5093591;28;20424;-81
2022/04/21 14:36:13;;;;;;;8.20;7.40;;;;;;;;;;5075281;28;20458;-82
2022/04/21 14:44:10;;;;;;;9.13;7.10;;;;;;;;;;5092800;28;20420;-82
2022/04/21 14:46:38;;;;;;;9.10;7.90;;;;;;;;;;5092167;28;20432;-82
2022/04/21 14:49:05;;;;;;;9.57;8.10;;;;;;;;;;5092388;28;20404;-82
2022/04/21 14:51:31;;;;;;;11.00;7.80;;;;;;;;;;5091805;28;20452;-82
2022/04/21 14:53:57;;;;;;;8.87;7.97;;;;;;;;;;5091953;28;20472;-82
2022/04/21 14:56:23;;;;;;;8.77;7.70;;;;;;;;;;5091321;28;20439;-82
2022/04/21 14:58:50;;;;;;;9.53;7.60;;;;;;;;;;5074085;28;20420;-82
2022/04/21 15:01:16;;;;;;;8.90;8.00;;;;;;;;;;5091606;28;20416;-82
2022/04/21 15:03:43;;;;;;;11.67;7.43;;;;;;;;;;5092103;28;20423;-82
2022/04/21 15:06:09;;;;;;;9.40;7.37;;;;;;;;;;5073978;28;20436;-82
2022/04/21 15:08:35;;;;;;;8.43;7.40;;;;;;;;;;5091430;28;20440;-82
2022/04/21 15:11:03;;;;;;;8.27;7.47;;;;;;;;;;5091730;28;20443;-82
2022/04/21 15:13:29;;;;;;;8.87;7.47;;;;;;;;;;5091872;28;20439;-82
2022/04/21 15:15:55;;;;;;;10.53;6.67;;;;;;;;;;5091893;28;20572;-82
2022/04/21 15:18:21;;;;;;;8.47;7.57;;;;;;;;;;5091754;28;20408;-82
2022/04/21 15:20:47;;;;;;;12.93;7.83;;;;;;;;;;5091471;28;20401;-82
2022/04/21 15:23:14;;;;;;;8.53;7.30;;;;;;;;;;5091721;28;20416;-82
2022/04/21 15:25:40;;;;;;;8.83;6.50;;;;;;;;;;5091093;28;20440;-82
2022/04/21 15:28:09;;;;;;;8.07;6.20;;;;;;;;;;5092292;28;20412;-82
2022/04/21 15:30:40;;;;;;;8.40;6.73;;;;;;;;;;5092068;28;20455;-82
2022/04/21 15:33:06;;;;;;;8.33;6.70;;;;;;;;;;5091773;28;20460;-82
2022/04/21 15:35:33;;;;;;;6.63;5.73;;;;;;;;;;5073524;28;20437;-82
2022/04/21 15:37:59;;;;;;;6.87;5.40;;;;;;;;;;5091169;28;20416;-82